Time;durP1;ratioP1;P1;durP2;ratioP2;P2;SDS_P1;SDS_P2;PMS_P1;PMS_P2;Temp;Humidity;BMP_temperature;BMP_pressure;BME280_temperature;BME280_humidity;BME280_pressure;Samples;Min_cycle;Max_cycle;Signal;HPM_P1;HPM_P2
2022/09/25 00:01:18;;;;;;;7.73;3.93;;;;;;;;;;5057587;27;87065;-65
2022/09/25 00:03:48;;;;;;;10.03;4.17;;;;;;;;;;5054815;27;87522;-66
2022/09/25 00:06:17;;;;;;;7.97;4.73;;;;;;;;;;5043199;27;89182;-65
2022/09/25 00:08:45;;;;;;;9.33;4.60;;;;;;;;;;5042110;28;88833;-66
2022/09/25 00:11:13;;;;;;;6.73;4.43;;;;;;;;;;5042988;27;88650;-68
2022/09/25 00:13:43;;;;;;;6.87;3.87;;;;;;;;;;5047078;27;87435;-66
2022/09/25 00:16:11;;;;;;;8.40;4.50;;;;;;;;;;5043323;27;88058;-65
2022/09/25 00:21:29;;;;;;;7.40;3.97;;;;;;;;;;5049218;27;89312;-67
2022/09/25 00:23:59;;;;;;;8.87;4.17;;;;;;;;;;5046176;27;87454;-66
2022/09/25 00:26:27;;;;;;;5.70;2.90;;;;;;;;;;5041480;27;88230;-65
2022/09/25 00:28:56;;;;;;;5.47;3.67;;;;;;;;;;5045490;27;88591;-66
2022/09/25 00:31:24;;;;;;;6.97;4.23;;;;;;;;;;5045643;27;87553;-66
2022/09/25 00:33:52;;;;;;;7.10;3.80;;;;;;;;;;5041845;28;87111;-66
2022/09/25 00:36:21;;;;;;;12.00;4.27;;;;;;;;;;5045350;27;88886;-65
2022/09/25 00:38:50;;;;;;;5.73;3.50;;;;;;;;;;5042697;27;88665;-65
2022/09/25 00:41:19;;;;;;;8.43;3.87;;;;;;;;;;5043073;27;87110;-65
2022/09/25 00:43:49;;;;;;;5.20;3.43;;;;;;;;;;5044454;27;88143;-65
2022/09/25 00:46:19;;;;;;;9.27;4.33;;;;;;;;;;5041787;28;89043;-67
2022/09/25 00:48:49;;;;;;;8.33;4.00;;;;;;;;;;5028135;28;89492;-65
2022/09/25 00:51:17;;;;;;;6.63;3.23;;;;;;;;;;5039896;28;86940;-65
2022/09/25 00:53:45;;;;;;;8.90;4.43;;;;;;;;;;5044580;27;87087;-66
2022/09/25 00:56:15;;;;;;;7.67;3.80;;;;;;;;;;5045164;27;89446;-67
2022/09/25 00:58:43;;;;;;;6.37;3.20;;;;;;;;;;5045392;27;88686;-67
2022/09/25 01:01:11;;;;;;;5.00;3.23;;;;;;;;;;5045095;27;87128;-65
2022/09/25 01:03:40;;;;;;;4.37;2.77;;;;;;;;;;5052856;27;86469;-65
2022/09/25 01:06:10;;;;;;;6.10;2.90;;;;;;;;;;5060644;27;88912;-65
2022/09/25 01:08:39;;;;;;;7.63;3.03;;;;;;;;;;5060937;27;88972;-65
2022/09/25 01:11:07;;;;;;;8.73;3.67;;;;;;;;;;5060298;27;88008;-65
2022/09/25 01:13:37;;;;;;;6.63;3.40;;;;;;;;;;5060911;27;86978;-65
2022/09/25 01:16:07;;;;;;;8.00;3.67;;;;;;;;;;5060124;27;90802;-66
2022/09/25 01:18:40;;;;;;;4.50;3.00;;;;;;;;;;5061499;27;88268;-66
2022/09/25 01:21:11;;;;;;;4.63;2.33;;;;;;;;;;5061395;27;87479;-65
2022/09/25 01:23:47;;;;;;;5.60;3.27;;;;;;;;;;5060017;27;86983;-65
2022/09/25 01:26:19;;;;;;;5.17;3.03;;;;;;;;;;5060112;27;88837;-65
2022/09/25 01:28:52;;;;;;;5.03;2.90;;;;;;;;;;5054803;27;88846;-66
2022/09/25 01:31:22;;;;;;;4.53;2.87;;;;;;;;;;5061703;27;86931;-66
2022/09/25 01:33:52;;;;;;;3.57;1.73;;;;;;;;;;5061535;27;87046;-67
2022/09/25 01:36:22;;;;;;;4.53;2.77;;;;;;;;;;5059602;27;90040;-66
2022/09/25 01:38:52;;;;;;;6.97;2.83;;;;;;;;;;5055047;27;88886;-66
2022/09/25 01:41:20;;;;;;;4.10;2.30;;;;;;;;;;5061477;27;87229;-67
2022/09/25 01:43:50;;;;;;;3.27;2.40;;;;;;;;;;5060645;27;87410;-66
2022/09/25 01:46:20;;;;;;;4.70;2.37;;;;;;;;;;5060832;27;88865;-67
2022/09/25 01:48:49;;;;;;;7.70;2.63;;;;;;;;;;5060724;27;91645;-66
2022/09/25 01:51:19;;;;;;;4.23;2.17;;;;;;;;;;5060290;27;87017;-66
2022/09/25 01:53:48;;;;;;;4.83;2.43;;;;;;;;;;5061265;27;86351;-67
2022/09/25 01:56:17;;;;;;;7.60;3.50;;;;;;;;;;5060698;27;89340;-66
2022/09/25 01:58:47;;;;;;;3.77;2.53;;;;;;;;;;5060160;27;88883;-67
2022/09/25 02:01:15;;;;;;;4.53;2.67;;;;;;;;;;5060434;27;88841;-66
2022/09/25 02:03:46;;;;;;;2.47;1.97;;;;;;;;;;5049983;27;87082;-66
2022/09/25 02:06:16;;;;;;;6.77;2.30;;;;;;;;;;5036186;28;87772;-66
2022/09/25 02:08:45;;;;;;;2.30;1.97;;;;;;;;;;5038728;28;88835;-65
2022/09/25 02:11:13;;;;;;;2.70;1.77;;;;;;;;;;5040551;27;87435;-65
2022/09/25 02:13:43;;;;;;;5.50;2.50;;;;;;;;;;5040130;28;87112;-64
2022/09/25 02:16:12;;;;;;;3.57;1.93;;;;;;;;;;5039782;28;88965;-65
2022/09/25 02:21:27;;;;;;;2.93;1.80;;;;;;;;;;5035728;28;87232;-67
2022/09/25 02:23:57;;;;;;;10.73;2.43;;;;;;;;;;5032526;28;87593;-66
2022/09/25 02:26:26;;;;;;;5.03;2.37;;;;;;;;;;5031567;28;89887;-66
2022/09/25 02:28:55;;;;;;;3.73;2.63;;;;;;;;;;5035011;28;89715;-65
2022/09/25 02:31:23;;;;;;;4.07;2.70;;;;;;;;;;5033302;28;87139;-65
2022/09/25 02:33:52;;;;;;;2.40;1.77;;;;;;;;;;5033662;28;88254;-65
2022/09/25 02:36:22;;;;;;;5.50;2.07;;;;;;;;;;5031955;28;89089;-65
2022/09/25 02:38:52;;;;;;;2.60;1.73;;;;;;;;;;5032463;28;88659;-66
2022/09/25 02:41:23;;;;;;;3.10;2.33;;;;;;;;;;5034692;28;87173;-66
2022/09/25 02:43:53;;;;;;;3.77;2.10;;;;;;;;;;5035741;28;88027;-67
2022/09/25 02:46:23;;;;;;;5.10;2.10;;;;;;;;;;5036122;28;89057;-66
2022/09/25 02:48:52;;;;;;;11.03;2.40;;;;;;;;;;5035183;28;88991;-67
2022/09/25 02:51:21;;;;;;;4.93;2.27;;;;;;;;;;5035213;28;90004;-67
2022/09/25 02:53:50;;;;;;;4.57;2.30;;;;;;;;;;5042948;28;86998;-66
2022/09/25 02:56:21;;;;;;;12.97;2.30;;;;;;;;;;5032087;28;89185;-65
2022/09/25 02:58:50;;;;;;;2.23;1.97;;;;;;;;;;5038246;28;87859;-64
2022/09/25 03:01:18;;;;;;;1.90;1.80;;;;;;;;;;5043026;28;86900;-66
2022/09/25 03:03:47;;;;;;;6.13;3.03;;;;;;;;;;5042997;28;88421;-66
2022/09/25 03:06:15;;;;;;;2.97;1.87;;;;;;;;;;5037311;28;88979;-65
2022/09/25 03:08:45;;;;;;;4.50;2.40;;;;;;;;;;5043045;28;88344;-65
2022/09/25 03:11:14;;;;;;;4.20;1.57;;;;;;;;;;5043125;28;87422;-66
2022/09/25 03:13:44;;;;;;;4.23;1.83;;;;;;;;;;5042962;28;87179;-65
2022/09/25 03:16:13;;;;;;;4.50;2.33;;;;;;;;;;5041888;28;93254;-65
2022/09/25 03:18:41;;;;;;;5.03;2.43;;;;;;;;;;5043061;28;89758;-65
2022/09/25 03:21:10;;;;;;;2.77;1.87;;;;;;;;;;5043004;28;87479;-64
2022/09/25 03:23:38;;;;;;;3.67;1.97;;;;;;;;;;5042866;28;86950;-65
2022/09/25 03:26:06;;;;;;;3.53;1.90;;;;;;;;;;5043237;28;89098;-66
2022/09/25 03:28:35;;;;;;;1.73;1.60;;;;;;;;;;5042288;27;89023;-66
2022/09/25 03:31:05;;;;;;;2.13;1.93;;;;;;;;;;5043651;28;87039;-65
2022/09/25 03:33:34;;;;;;;5.80;2.47;;;;;;;;;;5044135;28;86108;-65
2022/09/25 03:36:03;;;;;;;2.03;1.67;;;;;;;;;;5043069;28;89147;-66
2022/09/25 03:38:31;;;;;;;2.13;1.50;;;;;;;;;;5042801;28;88659;-65
2022/09/25 03:41:00;;;;;;;3.70;2.00;;;;;;;;;;5042418;28;88043;-66
2022/09/25 03:43:32;;;;;;;3.33;2.20;;;;;;;;;;5042925;28;87564;-66
2022/09/25 03:46:00;;;;;;;3.60;1.97;;;;;;;;;;5040002;28;89115;-65
2022/09/25 03:48:30;;;;;;;2.20;2.00;;;;;;;;;;5042369;28;87745;-66
2022/09/25 03:50:59;;;;;;;3.63;1.80;;;;;;;;;;5042200;27;87037;-66
2022/09/25 03:53:30;;;;;;;3.07;2.13;;;;;;;;;;5042140;28;88517;-66
2022/09/25 03:55:58;;;;;;;2.43;1.87;;;;;;;;;;5042788;28;89117;-65
2022/09/25 03:58:26;;;;;;;3.00;1.70;;;;;;;;;;5042556;28;88895;-67
2022/09/25 04:00:55;;;;;;;2.13;1.53;;;;;;;;;;5042298;28;87015;-65
2022/09/25 04:03:26;;;;;;;3.97;1.77;;;;;;;;;;5041796;28;87115;-66
2022/09/25 04:05:56;;;;;;;2.60;1.53;;;;;;;;;;5041256;28;90302;-67
2022/09/25 04:08:25;;;;;;;2.40;1.67;;;;;;;;;;5042613;28;90118;-67
2022/09/25 04:10:55;;;;;;;1.63;1.40;;;;;;;;;;5042692;28;88048;-67
2022/09/25 04:13:23;;;;;;;2.13;1.20;;;;;;;;;;5032838;28;87160;-66
2022/09/25 04:15:51;;;;;;;3.50;1.90;;;;;;;;;;5035907;28;88815;-67
2022/09/25 04:18:19;;;;;;;2.97;1.50;;;;;;;;;;5039524;28;88912;-67
2022/09/25 04:20:48;;;;;;;3.50;2.17;;;;;;;;;;5042037;28;87054;-67
2022/09/25 04:23:17;;;;;;;4.47;1.60;;;;;;;;;;5042217;28;88476;-67
2022/09/25 04:25:45;;;;;;;2.10;1.70;;;;;;;;;;5041287;28;89035;-67
2022/09/25 04:28:14;;;;;;;2.37;1.40;;;;;;;;;;5041320;28;89261;-67
2022/09/25 04:30:42;;;;;;;1.57;1.30;;;;;;;;;;5042056;28;87734;-67
2022/09/25 04:35:56;;;;;;;1.17;1.07;;;;;;;;;;5041071;28;89129;-67
2022/09/25 04:38:26;;;;;;;1.47;1.17;;;;;;;;;;5041138;28;87481;-66
2022/09/25 04:40:56;;;;;;;2.77;1.67;;;;;;;;;;5040308;28;87621;-65
2022/09/25 04:43:25;;;;;;;2.47;1.30;;;;;;;;;;5040736;28;87053;-67
2022/09/25 04:45:53;;;;;;;3.13;1.50;;;;;;;;;;5041954;28;89160;-68
2022/09/25 04:48:22;;;;;;;4.37;1.60;;;;;;;;;;5041498;28;88639;-68
2022/09/25 04:50:50;;;;;;;1.50;1.40;;;;;;;;;;5041621;28;86917;-67
2022/09/25 04:53:18;;;;;;;4.63;1.57;;;;;;;;;;5040321;28;87537;-67
2022/09/25 04:55:48;;;;;;;1.60;1.13;;;;;;;;;;5040665;28;89868;-68
2022/09/25 04:58:16;;;;;;;1.37;1.10;;;;;;;;;;5040692;28;90736;-67
2022/09/25 05:00:44;;;;;;;1.80;1.37;;;;;;;;;;5041658;28;88102;-67
2022/09/25 05:03:14;;;;;;;4.73;1.43;;;;;;;;;;5044696;27;87110;-68
2022/09/25 05:05:42;;;;;;;1.40;1.23;;;;;;;;;;5044608;27;89043;-67
2022/09/25 05:08:11;;;;;;;1.97;1.20;;;;;;;;;;5052043;27;88823;-66
2022/09/25 05:10:39;;;;;;;1.30;1.10;;;;;;;;;;5049660;27;87066;-66
2022/09/25 05:13:11;;;;;;;2.80;1.47;;;;;;;;;;5045564;27;86231;-66
2022/09/25 05:15:39;;;;;;;2.80;1.13;;;;;;;;;;5054772;27;88344;-67
2022/09/25 05:18:16;;;;;;;3.87;1.30;;;;;;;;;;5046785;27;88884;-69
2022/09/25 05:20:45;;;;;;;2.30;1.20;;;;;;;;;;5042140;27;88016;-67
2022/09/25 05:23:13;;;;;;;2.50;1.43;;;;;;;;;;5055461;27;87059;-67
2022/09/25 05:25:41;;;;;;;1.30;0.97;;;;;;;;;;5049193;27;88843;-67
2022/09/25 05:28:11;;;;;;;2.07;1.07;;;;;;;;;;5060981;27;87816;-67
2022/09/25 05:30:39;;;;;;;3.83;1.20;;;;;;;;;;5045964;27;86927;-68
2022/09/25 05:33:07;;;;;;;1.67;1.00;;;;;;;;;;5057086;27;87393;-67
2022/09/25 05:35:36;;;;;;;2.73;1.53;;;;;;;;;;5051006;27;88781;-67
2022/09/25 05:38:05;;;;;;;0.90;0.80;;;;;;;;;;5042049;27;88600;-67
2022/09/25 05:40:33;;;;;;;2.33;1.63;;;;;;;;;;5050271;27;87099;-68
2022/09/25 05:43:02;;;;;;;2.60;1.37;;;;;;;;;;5046072;27;87304;-69
2022/09/25 05:45:32;;;;;;;2.30;1.60;;;;;;;;;;5048866;27;90076;-70
2022/09/25 05:48:01;;;;;;;5.00;2.33;;;;;;;;;;5048425;27;89896;-71
2022/09/25 05:50:31;;;;;;;3.83;2.37;;;;;;;;;;5055616;27;87278;-70
2022/09/25 05:52:59;;;;;;;3.20;2.10;;;;;;;;;;5051497;27;87008;-70
2022/09/25 05:55:27;;;;;;;3.77;2.87;;;;;;;;;;5052050;27;88151;-69
2022/09/25 05:58:00;;;;;;;6.60;2.67;;;;;;;;;;5054084;27;87191;-71
2022/09/25 06:00:31;;;;;;;4.10;2.50;;;;;;;;;;5053433;27;87005;-68
2022/09/25 06:03:01;;;;;;;4.93;2.93;;;;;;;;;;5046935;27;86160;-68
2022/09/25 06:05:29;;;;;;;5.83;3.30;;;;;;;;;;5038206;27;89478;-69
2022/09/25 06:07:58;;;;;;;6.93;3.90;;;;;;;;;;5034642;27;88396;-68
2022/09/25 06:10:26;;;;;;;6.57;3.63;;;;;;;;;;5034532;27;87878;-69
2022/09/25 06:12:57;;;;;;;6.13;4.30;;;;;;;;;;5029643;27;87202;-70
2022/09/25 06:15:26;;;;;;;7.67;3.97;;;;;;;;;;5027106;27;88908;-71
2022/09/25 06:17:55;;;;;;;9.67;3.97;;;;;;;;;;5030476;27;89154;-68
2022/09/25 06:20:24;;;;;;;10.77;5.30;;;;;;;;;;5025493;27;86890;-68
2022/09/25 06:22:53;;;;;;;9.90;4.97;;;;;;;;;;5027532;27;87119;-67
2022/09/25 06:25:22;;;;;;;10.60;6.23;;;;;;;;;;5024673;27;88824;-67
2022/09/25 06:27:52;;;;;;;16.27;8.97;;;;;;;;;;5028491;27;88993;-67
2022/09/25 06:30:21;;;;;;;16.77;7.20;;;;;;;;;;5027967;27;87161;-70
2022/09/25 06:32:56;;;;;;;14.77;7.97;;;;;;;;;;5025327;27;87048;-69
2022/09/25 06:35:26;;;;;;;15.53;8.60;;;;;;;;;;5032612;27;88937;-69
2022/09/25 06:37:57;;;;;;;14.27;9.23;;;;;;;;;;5033837;28;89968;-69
2022/09/25 06:40:26;;;;;;;15.57;8.33;;;;;;;;;;5037105;28;87075;-68
2022/09/25 06:42:58;;;;;;;16.17;9.53;;;;;;;;;;5036604;27;87844;-67
2022/09/25 06:45:26;;;;;;;17.30;8.70;;;;;;;;;;5033489;27;89108;-67
2022/09/25 06:47:56;;;;;;;18.10;10.20;;;;;;;;;;5028123;27;89067;-68
2022/09/25 06:50:30;;;;;;;15.33;9.17;;;;;;;;;;5033554;27;87579;-68
2022/09/25 06:52:59;;;;;;;17.67;9.77;;;;;;;;;;5032920;27;86774;-68
2022/09/25 06:55:27;;;;;;;12.37;8.13;;;;;;;;;;5041552;27;88846;-67
2022/09/25 06:57:55;;;;;;;21.33;10.10;;;;;;;;;;5030420;27;88981;-63
2022/09/25 07:00:24;;;;;;;18.73;9.67;;;;;;;;;;5033714;27;89628;-64
2022/09/25 07:05:41;;;;;;;17.53;9.10;;;;;;;;;;5033201;27;88326;-66
2022/09/25 07:08:09;;;;;;;17.57;11.03;;;;;;;;;;5036439;27;88729;-65
2022/09/25 07:10:37;;;;;;;15.70;9.60;;;;;;;;;;5038168;27;87200;-66
2022/09/25 07:13:12;;;;;;;13.90;8.13;;;;;;;;;;5036723;27;87192;-69
2022/09/25 07:15:40;;;;;;;11.60;8.13;;;;;;;;;;5036004;27;88980;-71
2022/09/25 07:18:08;;;;;;;16.40;8.80;;;;;;;;;;5036031;27;88847;-64
2022/09/25 07:20:37;;;;;;;17.37;8.07;;;;;;;;;;5035800;28;87083;-68
2022/09/25 07:23:07;;;;;;;13.33;6.63;;;;;;;;;;5035453;28;87072;-67
2022/09/25 07:25:35;;;;;;;12.43;6.63;;;;;;;;;;5037045;27;90195;-69
2022/09/25 07:28:03;;;;;;;8.63;5.60;;;;;;;;;;5042384;28;89450;-66
2022/09/25 07:30:32;;;;;;;10.93;7.13;;;;;;;;;;5041338;27;88118;-69
2022/09/25 07:33:00;;;;;;;17.97;7.13;;;;;;;;;;5042564;28;86963;-70
2022/09/25 07:35:28;;;;;;;14.13;6.37;;;;;;;;;;5041893;28;88900;-67
2022/09/25 07:37:57;;;;;;;10.87;6.27;;;;;;;;;;5039726;28;89153;-69
2022/09/25 07:40:27;;;;;;;10.57;6.00;;;;;;;;;;5034043;28;88813;-68
2022/09/25 07:42:58;;;;;;;11.30;6.80;;;;;;;;;;5031686;28;86369;-69
2022/09/25 07:45:27;;;;;;;11.37;7.03;;;;;;;;;;5039344;28;88939;-69
2022/09/25 07:47:56;;;;;;;14.17;7.33;;;;;;;;;;5039096;27;88908;-67
2022/09/25 07:50:24;;;;;;;16.07;8.60;;;;;;;;;;5034521;28;88991;-73
2022/09/25 07:52:53;;;;;;;13.17;7.17;;;;;;;;;;5038249;28;88825;-67
2022/09/25 07:55:21;;;;;;;12.57;6.60;;;;;;;;;;5032690;27;88096;-68
2022/09/25 07:57:51;;;;;;;14.13;6.97;;;;;;;;;;5032688;27;88676;-69
2022/09/25 08:00:19;;;;;;;11.97;7.60;;;;;;;;;;5035577;27;88238;-62
2022/09/25 08:02:55;;;;;;;9.97;7.30;;;;;;;;;;5040738;27;87071;-67
2022/09/25 08:05:24;;;;;;;11.87;6.50;;;;;;;;;;5046256;27;87584;-67
2022/09/25 08:07:53;;;;;;;9.17;5.53;;;;;;;;;;5038287;28;88227;-65
2022/09/25 08:10:21;;;;;;;11.67;5.37;;;;;;;;;;5033725;28;87020;-63
2022/09/25 08:12:51;;;;;;;13.80;5.80;;;;;;;;;;5043217;28;87028;-66
2022/09/25 08:15:19;;;;;;;13.70;5.50;;;;;;;;;;5040812;28;90145;-62
2022/09/25 08:17:47;;;;;;;12.17;6.60;;;;;;;;;;5042267;28;89899;-63
2022/09/25 08:20:16;;;;;;;14.67;7.67;;;;;;;;;;5042636;28;87002;-63
2022/09/25 08:22:44;;;;;;;8.10;5.30;;;;;;;;;;5040858;28;87582;-63
2022/09/25 08:25:12;;;;;;;8.67;6.27;;;;;;;;;;5041201;28;89462;-63
2022/09/25 08:27:42;;;;;;;11.70;6.10;;;;;;;;;;5040181;28;87884;-63
2022/09/25 08:30:12;;;;;;;14.83;7.00;;;;;;;;;;5042495;28;87180;-63
2022/09/25 08:32:41;;;;;;;13.27;8.63;;;;;;;;;;5040956;28;86268;-63
2022/09/25 08:35:10;;;;;;;13.90;8.27;;;;;;;;;;5038334;28;87057;-63
2022/09/25 08:37:40;;;;;;;19.10;9.37;;;;;;;;;;5042327;27;88571;-63
2022/09/25 08:40:12;;;;;;;15.13;9.43;;;;;;;;;;5047101;27;88026;-63
2022/09/25 08:42:40;;;;;;;17.03;8.97;;;;;;;;;;5042203;27;88773;-63
2022/09/25 08:50:44;;;;;;;17.13;9.20;;;;;;;;;;5039319;28;87066;-62
2022/09/25 08:53:16;;;;;;;18.40;11.03;;;;;;;;;;5042613;28;87091;-62
2022/09/25 08:58:31;;;;;;;17.80;10.53;;;;;;;;;;5036653;28;88841;-62
2022/09/25 09:01:01;;;;;;;21.73;10.53;;;;;;;;;;5037049;28;87162;-61
2022/09/25 09:03:31;;;;;;;18.37;11.93;;;;;;;;;;5045217;27;87157;-64
2022/09/25 09:06:01;;;;;;;20.00;11.53;;;;;;;;;;5059054;27;91619;-67
2022/09/25 09:08:29;;;;;;;23.30;11.73;;;;;;;;;;5061474;27;89853;-62
2022/09/25 09:10:58;;;;;;;20.73;12.13;;;;;;;;;;5061298;27;87168;-64
2022/09/25 09:13:27;;;;;;;31.60;13.83;;;;;;;;;;5061679;27;88543;-62
2022/09/25 09:15:57;;;;;;;21.30;12.87;;;;;;;;;;5061694;27;89313;-60
2022/09/25 09:18:26;;;;;;;21.97;12.87;;;;;;;;;;5060703;27;88601;-62
2022/09/25 09:20:56;;;;;;;29.47;14.77;;;;;;;;;;5056890;27;87064;-62
2022/09/25 09:23:25;;;;;;;31.17;15.87;;;;;;;;;;5061879;27;86465;-62
2022/09/25 09:25:56;;;;;;;31.27;14.83;;;;;;;;;;5061986;27;88987;-64
2022/09/25 09:28:30;;;;;;;26.53;14.07;;;;;;;;;;5062858;27;87975;-63
2022/09/25 09:31:00;;;;;;;24.57;14.63;;;;;;;;;;5059710;27;88155;-62
2022/09/25 09:33:34;;;;;;;28.40;15.77;;;;;;;;;;5058279;27;86995;-63
2022/09/25 09:36:06;;;;;;;26.33;13.50;;;;;;;;;;5060246;27;88524;-61
2022/09/25 09:38:38;;;;;;;23.73;12.37;;;;;;;;;;5060306;27;89051;-62
2022/09/25 09:41:12;;;;;;;32.67;15.23;;;;;;;;;;5062036;27;87106;-63
2022/09/25 09:43:53;;;;;;;24.07;13.73;;;;;;;;;;5061199;27;87047;-64
2022/09/25 09:46:26;;;;;;;21.70;13.23;;;;;;;;;;5059598;27;88939;-62
2022/09/25 09:48:58;;;;;;;27.80;15.20;;;;;;;;;;5060321;27;89061;-62
2022/09/25 09:51:28;;;;;;;25.17;14.57;;;;;;;;;;5059176;27;86917;-63
2022/09/25 09:53:58;;;;;;;31.10;17.00;;;;;;;;;;5061773;27;86996;-63
2022/09/25 09:56:27;;;;;;;29.57;16.27;;;;;;;;;;5060699;27;89852;-63
2022/09/25 09:58:56;;;;;;;33.63;15.43;;;;;;;;;;5061069;27;89979;-64
2022/09/25 10:01:25;;;;;;;28.00;16.43;;;;;;;;;;5058597;27;87068;-62
2022/09/25 10:04:09;;;;;;;26.20;14.90;;;;;;;;;;5060545;27;86932;-64
2022/09/25 10:06:39;;;;;;;24.87;14.47;;;;;;;;;;5060786;27;89081;-62
2022/09/25 10:09:09;;;;;;;23.30;14.50;;;;;;;;;;5057552;27;89079;-63
2022/09/25 10:11:37;;;;;;;27.30;14.93;;;;;;;;;;5049467;27;87228;-63
2022/09/25 10:14:05;;;;;;;25.63;15.10;;;;;;;;;;5049603;27;86235;-63
2022/09/25 10:16:34;;;;;;;23.77;12.77;;;;;;;;;;5048845;27;90443;-63
2022/09/25 10:19:04;;;;;;;31.07;14.17;;;;;;;;;;5059910;27;87742;-64
2022/09/25 10:21:34;;;;;;;31.70;14.67;;;;;;;;;;5060846;27;87985;-65
2022/09/25 10:24:03;;;;;;;25.60;13.37;;;;;;;;;;5060233;27;86969;-62
2022/09/25 10:26:34;;;;;;;19.83;12.53;;;;;;;;;;5060970;27;87908;-65
2022/09/25 10:29:03;;;;;;;23.20;13.33;;;;;;;;;;5060828;27;89019;-63
2022/09/25 10:31:33;;;;;;;24.30;13.27;;;;;;;;;;5061069;27;87036;-63
2022/09/25 10:34:02;;;;;;;24.57;13.60;;;;;;;;;;5060614;27;87311;-65
2022/09/25 10:36:38;;;;;;;23.57;12.50;;;;;;;;;;5059592;27;89045;-65
2022/09/25 10:39:23;;;;;;;19.47;12.00;;;;;;;;;;5059924;27;88196;-66
2022/09/25 10:42:26;;;;;;;21.97;11.50;;;;;;;;;;5060523;27;86997;-65
2022/09/25 10:44:56;;;;;;;19.97;10.53;;;;;;;;;;5059976;27;87100;-66
2022/09/25 10:50:18;;;;;;;16.37;9.00;;;;;;;;;;5040824;28;89801;-66
2022/09/25 10:52:49;;;;;;;16.50;9.47;;;;;;;;;;5040819;27;87077;-65
2022/09/25 10:55:27;;;;;;;20.40;11.03;;;;;;;;;;5041282;27;86918;-66
2022/09/25 10:58:06;;;;;;;17.10;10.17;;;;;;;;;;5040495;27;89411;-66
2022/09/25 11:00:35;;;;;;;15.53;10.27;;;;;;;;;;5040279;27;89042;-66
2022/09/25 11:03:04;;;;;;;9.73;7.83;;;;;;;;;;5046346;27;87070;-66
2022/09/25 11:05:36;;;;;;;14.93;9.47;;;;;;;;;;5065701;27;86278;-66
2022/09/25 11:08:05;;;;;;;12.50;8.13;;;;;;;;;;5065335;27;89102;-66
2022/09/25 11:10:36;;;;;;;15.00;7.83;;;;;;;;;;5065251;27;91951;-66
2022/09/25 11:13:05;;;;;;;11.30;7.07;;;;;;;;;;5064692;27;88038;-65
2022/09/25 11:15:36;;;;;;;13.33;7.17;;;;;;;;;;5064870;27;87097;-66
2022/09/25 11:18:04;;;;;;;13.60;6.47;;;;;;;;;;5064182;27;88898;-65
2022/09/25 11:20:33;;;;;;;12.13;6.97;;;;;;;;;;5064577;27;89291;-65
2022/09/25 11:23:04;;;;;;;11.17;6.13;;;;;;;;;;5064780;27;87023;-65
2022/09/25 11:25:34;;;;;;;10.07;5.53;;;;;;;;;;5064413;27;87110;-66
2022/09/25 11:28:05;;;;;;;17.53;6.23;;;;;;;;;;5064475;27;91142;-65
2022/09/25 11:30:38;;;;;;;13.17;6.53;;;;;;;;;;5064687;27;88866;-66
2022/09/25 11:33:07;;;;;;;6.03;4.73;;;;;;;;;;5065179;27;87093;-66
2022/09/25 11:35:40;;;;;;;8.83;5.57;;;;;;;;;;5064216;27;87035;-66
2022/09/25 11:38:13;;;;;;;12.47;6.37;;;;;;;;;;5063800;27;90467;-67
2022/09/25 11:43:40;;;;;;;8.60;4.63;;;;;;;;;;5064898;27;87110;-65
2022/09/25 11:46:12;;;;;;;6.70;4.00;;;;;;;;;;5064874;27;86960;-66
2022/09/25 11:48:43;;;;;;;6.33;3.83;;;;;;;;;;5063826;27;89381;-66
2022/09/25 11:51:12;;;;;;;5.37;4.33;;;;;;;;;;5064465;27;88533;-65
2022/09/25 11:53:42;;;;;;;6.70;4.10;;;;;;;;;;5064601;27;87022;-64
2022/09/25 11:56:22;;;;;;;4.63;3.37;;;;;;;;;;5064792;27;86356;-66
2022/09/25 11:58:55;;;;;;;4.80;3.00;;;;;;;;;;5064044;27;87593;-66
2022/09/25 12:01:26;;;;;;;4.60;2.90;;;;;;;;;;5063958;27;88941;-65
2022/09/25 12:04:05;;;;;;;6.10;3.87;;;;;;;;;;5063187;27;87911;-67
2022/09/25 12:06:43;;;;;;;6.00;3.87;;;;;;;;;;5064414;27;86902;-65
2022/09/25 12:09:16;;;;;;;6.87;3.60;;;;;;;;;;5064120;27;88404;-66
2022/09/25 12:11:46;;;;;;;4.37;3.20;;;;;;;;;;5064162;27;88455;-64
2022/09/25 12:14:16;;;;;;;2.60;1.70;;;;;;;;;;5064650;27;87041;-66
2022/09/25 12:16:47;;;;;;;4.13;2.73;;;;;;;;;;5064080;27;87828;-65
2022/09/25 12:19:23;;;;;;;4.13;3.27;;;;;;;;;;5063159;27;88159;-66
2022/09/25 12:21:52;;;;;;;6.20;2.97;;;;;;;;;;5062644;27;92301;-64
2022/09/25 12:24:25;;;;;;;5.70;3.20;;;;;;;;;;5063804;27;87153;-66
2022/09/25 12:27:02;;;;;;;8.43;3.50;;;;;;;;;;5063900;27;87023;-66
2022/09/25 12:29:35;;;;;;;5.37;2.63;;;;;;;;;;5063582;27;89690;-65
2022/09/25 12:32:05;;;;;;;6.23;4.23;;;;;;;;;;5063260;27;89562;-66
2022/09/25 12:34:39;;;;;;;4.20;2.77;;;;;;;;;;5062360;27;86983;-65
2022/09/25 12:37:08;;;;;;;3.60;2.87;;;;;;;;;;5062577;27;87255;-65
2022/09/25 12:39:39;;;;;;;7.97;3.10;;;;;;;;;;5062092;27;89115;-65
2022/09/25 12:42:08;;;;;;;3.87;2.77;;;;;;;;;;5063333;27;91848;-65
2022/09/25 12:44:40;;;;;;;4.13;2.87;;;;;;;;;;5063510;27;87157;-64
2022/09/25 12:47:09;;;;;;;4.17;3.13;;;;;;;;;;5063931;27;86309;-64
2022/09/25 12:49:39;;;;;;;4.70;2.57;;;;;;;;;;5063070;27;89500;-63
2022/09/25 12:52:10;;;;;;;6.47;2.87;;;;;;;;;;5063234;27;89694;-63
2022/09/25 12:54:44;;;;;;;3.10;2.57;;;;;;;;;;5061360;27;87894;-64
2022/09/25 12:57:14;;;;;;;3.23;2.30;;;;;;;;;;5061366;27;87415;-64
2022/09/25 12:59:44;;;;;;;4.47;3.10;;;;;;;;;;5061657;27;89066;-64
2022/09/25 13:02:14;;;;;;;3.97;2.37;;;;;;;;;;5062492;27;88969;-64
2022/09/25 13:04:55;;;;;;;3.50;2.07;;;;;;;;;;5063282;27;87716;-64
2022/09/25 13:07:26;;;;;;;2.83;1.90;;;;;;;;;;5063503;27;86913;-64
2022/09/25 13:09:54;;;;;;;4.13;2.60;;;;;;;;;;5063494;27;89216;-64
2022/09/25 13:12:25;;;;;;;3.67;1.97;;;;;;;;;;5063360;27;88933;-64
2022/09/25 13:14:55;;;;;;;3.50;2.33;;;;;;;;;;5063352;27;87022;-64
2022/09/25 13:17:23;;;;;;;5.03;1.93;;;;;;;;;;5063116;27;87262;-64
2022/09/25 13:19:52;;;;;;;2.47;1.93;;;;;;;;;;5061844;27;89462;-64
2022/09/25 13:22:21;;;;;;;3.00;1.87;;;;;;;;;;5062439;27;89828;-64
2022/09/25 13:24:51;;;;;;;2.90;2.10;;;;;;;;;;5062639;27;86981;-64
2022/09/25 13:27:21;;;;;;;2.30;1.73;;;;;;;;;;5063287;27;86999;-64
2022/09/25 13:29:57;;;;;;;3.07;1.73;;;;;;;;;;5063046;27;89417;-64
2022/09/25 13:32:27;;;;;;;3.93;2.07;;;;;;;;;;5062623;27;88174;-64
2022/09/25 13:34:56;;;;;;;2.20;1.57;;;;;;;;;;5063119;27;87086;-64
2022/09/25 13:37:26;;;;;;;2.27;1.40;;;;;;;;;;5063697;27;86202;-64
2022/09/25 13:42:40;;;;;;;1.67;1.40;;;;;;;;;;5062238;27;88734;-64
2022/09/25 13:45:25;;;;;;;2.87;1.90;;;;;;;;;;5061863;27;87767;-64
2022/09/25 13:47:58;;;;;;;1.53;1.43;;;;;;;;;;5047231;27;87142;-64
2022/09/25 13:50:37;;;;;;;4.10;1.87;;;;;;;;;;5062293;27;89062;-64
2022/09/25 13:53:19;;;;;;;1.67;1.30;;;;;;;;;;5062087;27;87723;-64
2022/09/25 13:56:02;;;;;;;3.13;2.40;;;;;;;;;;5062920;27;86997;-64
2022/09/25 13:58:31;;;;;;;1.37;1.23;;;;;;;;;;5062818;27;87348;-64
2022/09/25 14:01:01;;;;;;;1.70;1.30;;;;;;;;;;5062535;27;89205;-64
2022/09/25 14:03:32;;;;;;;1.67;1.00;;;;;;;;;;5062828;27;88726;-64
2022/09/25 14:06:00;;;;;;;2.40;1.50;;;;;;;;;;5062752;27;87084;-64
2022/09/25 14:08:30;;;;;;;1.43;1.30;;;;;;;;;;5061507;27;87156;-64
2022/09/25 14:10:59;;;;;;;1.50;1.40;;;;;;;;;;5061429;27;92467;-64
2022/09/25 14:13:28;;;;;;;2.27;1.20;;;;;;;;;;5041414;28;88298;-64
2022/09/25 14:15:57;;;;;;;1.50;1.30;;;;;;;;;;5042001;28;87080;-64
2022/09/25 14:18:26;;;;;;;2.97;1.77;;;;;;;;;;5041897;28;86952;-64
2022/09/25 14:20:58;;;;;;;1.43;1.30;;;;;;;;;;5041461;28;89183;-63
2022/09/25 14:23:28;;;;;;;1.97;1.23;;;;;;;;;;5041309;28;88775;-63
2022/09/25 14:25:57;;;;;;;1.37;1.10;;;;;;;;;;5042227;28;87098;-63
2022/09/25 14:28:26;;;;;;;1.67;1.20;;;;;;;;;;5042583;28;86291;-62
2022/09/25 14:31:03;;;;;;;1.67;1.27;;;;;;;;;;5044328;28;91119;-61
2022/09/25 14:33:40;;;;;;;2.13;1.10;;;;;;;;;;5043004;28;88868;-63
2022/09/25 14:36:15;;;;;;;1.43;0.80;;;;;;;;;;5045103;28;87835;-63
2022/09/25 14:38:50;;;;;;;2.47;1.90;;;;;;;;;;5045379;28;87014;-62
2022/09/25 14:41:33;;;;;;;1.30;1.20;;;;;;;;;;5043484;28;88974;-62
2022/09/25 14:44:13;;;;;;;2.63;1.70;;;;;;;;;;5039820;28;87668;-62
2022/09/25 14:46:41;;;;;;;2.07;1.43;;;;;;;;;;5041843;28;86746;-64
2022/09/25 14:49:14;;;;;;;2.77;1.80;;;;;;;;;;5041988;28;86972;-63
2022/09/25 14:51:45;;;;;;;2.37;1.80;;;;;;;;;;5042753;28;88245;-63
2022/09/25 14:54:15;;;;;;;3.20;2.07;;;;;;;;;;5047972;28;89245;-65
2022/09/25 14:56:44;;;;;;;3.07;2.53;;;;;;;;;;5042270;28;86926;-64
2022/09/25 14:59:13;;;;;;;3.23;2.30;;;;;;;;;;5047181;28;86936;-65
2022/09/25 15:01:45;;;;;;;3.67;2.43;;;;;;;;;;5043865;28;90277;-64
2022/09/25 15:04:13;;;;;;;4.47;3.03;;;;;;;;;;5040278;28;89753;-64
2022/09/25 15:06:43;;;;;;;3.70;2.67;;;;;;;;;;5041449;28;86737;-63
2022/09/25 15:09:25;;;;;;;7.20;3.40;;;;;;;;;;5040676;28;88947;-63
2022/09/25 15:11:54;;;;;;;5.10;3.47;;;;;;;;;;5040662;28;92317;-63
2022/09/25 15:14:22;;;;;;;5.00;3.20;;;;;;;;;;5041523;28;88578;-64
2022/09/25 15:19:48;;;;;;;4.40;2.70;;;;;;;;;;4998920;28;86168;-64
2022/09/25 15:22:17;;;;;;;4.23;3.03;;;;;;;;;;5030680;28;88956;-65
2022/09/25 15:24:48;;;;;;;3.90;2.97;;;;;;;;;;5041428;28;88675;-65